Terminal Aerodrome Forecast
Issued by NWS Sioux Falls, SD

Home | Current Version | Previous Version | Text Only | Print | Product List | Glossary On
Versions: 1 2 3 4 5 6 7 8 9 10 11 12 13 14 15
759
FTUS43 KFSD 292320
TAFHON
TAF
KHON 292320Z 3000/3024 32018G26KT 3SM -SN OVC010
     FM300600 31018G25KT P6SM OVC010
      TEMPO 3006/3010 3SM -SN
     FM301000 31017G25KT 4SM -SN OVC015
     FM301800 32018KT P6SM VCSH OVC010=

USA.gov is the U.S. government's official web portal to all federal, state and local government web resources and services.